Festivo — EAEQ — position and weather

sailwx.info

Track history (hours):
 
Tides and Currents Weather Stations Pressure Air Temp Water Temp Dewpoint Dewpoint Depression Visibility Wind Speed Wind Dir Waves Ship Positions

Festivo

Last reported at 2014-Jul-24 11:06 UTC. Time now 2014-Jul-28 20:42 UTC.
Position N 35°55' W 005°18'.

Length 136 m; draft 3.5 m.

Type: Cargo ship. MMSI: 225410000.

Date/timePositionNaut miles runAvg speedWind from/ knotsBaromVisibWave heightAir tempDewpointWater temp
2014-Jul-24 11:06N 35°55' W 005°18'2 3.0
2014-Jul-24 10:33N 35°54' W 005°19'0 0.0
2014-Jul-24 09:33N 35°54' W 005°19'0 0.0
2014-Jul-24 08:33N 35°54' W 005°19'1 0.8
2014-Jul-24 07:33N 35°54' W 005°19'120 5.6
2014-Jul-23 10:20N 35°25' W 002°55'  
2014-Jul-17 09:33N 35°54' W 005°19'1 0.8
2014-Jul-17 08:32N 35°54' W 005°19'0 0.0
2014-Jul-17 07:29N 35°54' W 005°19'  
Track history (hours):
 
Tides and Currents Weather Stations Pressure Air Temp Water Temp Dewpoint Dewpoint Depression Visibility Wind Speed Wind Dir Waves Ship Positions

Festivo

Last reported at 2014-Jul-24 11:06 UTC. Time now 2014-Jul-28 20:42 UTC.
Position N 35°55' W 005°18'.

Length 136 m; draft 3.5 m.

Type: Cargo ship. MMSI: 225410000.

Date/timePositionNaut miles runAvg speedWind from/ knotsBaromVisibWave heightAir tempDewpointWater temp
2014-Jul-24 11:06N 35°55' W 005°18'2 3.0
2014-Jul-24 10:33N 35°54' W 005°19'0 0.0
2014-Jul-24 09:33N 35°54' W 005°19'0 0.0
2014-Jul-24 08:33N 35°54' W 005°19'1 0.8
2014-Jul-24 07:33N 35°54' W 005°19'120 5.6
2014-Jul-23 10:20N 35°25' W 002°55'  
2014-Jul-17 09:33N 35°54' W 005°19'1 0.8
2014-Jul-17 08:32N 35°54' W 005°19'0 0.0
2014-Jul-17 07:29N 35°54' W 005°19'  

Dump ship's entire track history